Time;durP1;ratioP1;P1;durP2;ratioP2;P2;SDS_P1;SDS_P2;PMS_P1;PMS_P2;Temp;Humidity;BMP_temperature;BMP_pressure;BME280_temperature;BME280_humidity;BME280_pressure;Samples;Min_cycle;Max_cycle;Signal;HPM_P1;HPM_P2
2023/02/21 03:01:40;;;;;;;10.97;9.97;;;2.80;99.90;;;;;;5741223;22;20227;-80
2023/02/21 03:04:30;;;;;;;11.43;10.40;;;2.90;99.90;;;;;;5061124;28;20320;-80
2023/02/21 03:07:06;;;;;;;10.87;9.87;;;3.00;99.90;;;;;;5058548;28;20231;-80
2023/02/21 03:09:41;;;;;;;11.20;10.20;;;3.00;99.90;;;;;;5066352;28;20195;-80
2023/02/21 03:12:15;;;;;;;10.83;9.90;;;3.00;99.90;;;;;;5039949;28;20219;-80
2023/02/21 03:14:50;;;;;;;10.27;9.33;;;3.00;99.90;;;;;;5032545;28;20200;-80
2023/02/21 03:17:23;;;;;;;11.07;10.17;;;3.10;99.90;;;;;;5031825;28;20196;-80
2023/02/21 03:19:53;;;;;;;11.23;10.33;;;3.10;99.90;;;;;;5039194;28;20223;-80
2023/02/21 03:22:25;;;;;;;10.77;9.80;;;3.10;99.90;;;;;;5038275;28;20323;-81
2023/02/21 03:24:55;;;;;;;10.07;9.30;;;3.10;99.90;;;;;;5030828;28;20199;-80
2023/02/21 03:27:23;;;;;;;10.27;9.33;;;3.10;99.90;;;;;;5035128;28;20215;-80
2023/02/21 03:30:02;;;;;;;10.00;9.10;;;3.10;99.90;;;;;;5038262;28;20207;-80
2023/02/21 03:35:03;;;;;;;10.20;9.40;;;3.00;99.90;;;;;;5038491;28;20262;-80
2023/02/21 03:37:32;;;;;;;10.30;9.30;;;3.00;99.90;;;;;;5036371;28;20212;-81
2023/02/21 03:40:00;;;;;;;10.10;9.30;;;3.10;99.90;;;;;;5039574;28;20220;-80
2023/02/21 03:42:28;;;;;;;10.17;9.27;;;3.10;99.90;;;;;;5034662;28;20220;-81
2023/02/21 03:44:55;;;;;;;10.27;9.37;;;3.00;99.90;;;;;;5036762;28;20219;-82
2023/02/21 03:47:22;;;;;;;10.07;9.23;;;3.00;99.90;;;;;;5036129;28;20291;-81
2023/02/21 03:49:51;;;;;;;11.17;10.13;;;3.00;99.90;;;;;;5033803;28;20191;-82
2023/02/21 03:52:18;;;;;;;10.13;9.33;;;3.00;99.90;;;;;;5032622;28;20283;-84
2023/02/21 03:54:45;;;;;;;10.37;9.40;;;2.90;99.90;;;;;;5039208;28;20201;-85
2023/02/21 03:57:16;;;;;;;12.87;9.87;;;2.90;99.90;;;;;;5034087;28;20213;-84
2023/02/21 03:59:45;;;;;;;10.23;9.43;;;2.90;99.90;;;;;;5022361;28;20314;-85
2023/02/21 04:02:13;;;;;;;10.20;9.33;;;2.80;99.90;;;;;;5037466;28;20224;-85
2023/02/21 04:04:40;;;;;;;10.67;9.67;;;2.80;99.90;;;;;;5042710;28;20195;-85
2023/02/21 04:07:12;;;;;;;10.47;9.57;;;2.80;99.90;;;;;;5029346;28;20218;-86
2023/02/21 04:09:39;;;;;;;10.63;9.60;;;2.80;99.90;;;;;;5036394;28;20638;-85
2023/02/21 04:12:08;;;;;;;10.87;9.93;;;2.70;99.90;;;;;;5032036;28;20228;-86
2023/02/21 04:14:37;;;;;;;10.47;9.50;;;2.70;99.90;;;;;;5034930;28;20200;-86
2023/02/21 04:17:04;;;;;;;10.53;9.60;;;2.70;99.90;;;;;;5036188;28;20203;-82
2023/02/21 04:19:32;;;;;;;10.47;9.57;;;2.60;99.90;;;;;;5032705;28;20765;-85
2023/02/21 04:21:59;;;;;;;10.83;9.80;;;2.60;99.90;;;;;;5024987;28;20910;-85
2023/02/21 04:24:28;;;;;;;10.40;9.60;;;2.60;99.90;;;;;;5034372;28;20662;-86
2023/02/21 04:26:57;;;;;;;10.00;9.30;;;2.60;99.90;;;;;;5045219;28;20295;-86
2023/02/21 04:29:24;;;;;;;10.73;9.73;;;2.50;99.90;;;;;;5037768;28;20323;-85
2023/02/21 04:31:51;;;;;;;10.40;9.53;;;2.50;99.90;;;;;;5033580;28;20216;-85
2023/02/21 04:34:19;;;;;;;10.00;9.20;;;2.50;99.90;;;;;;5032209;28;20580;-82
2023/02/21 04:36:46;;;;;;;11.10;10.00;;;2.50;99.90;;;;;;5036252;28;20192;-80
2023/02/21 04:39:14;;;;;;;10.67;9.87;;;2.40;99.90;;;;;;5038011;28;20764;-80
2023/02/21 04:41:42;;;;;;;9.90;9.10;;;2.50;99.90;;;;;;5043513;28;20238;-81
2023/02/21 04:44:09;;;;;;;11.27;10.10;;;2.50;99.90;;;;;;5038285;28;20593;-79
2023/02/21 04:46:36;;;;;;;11.03;10.13;;;2.40;99.90;;;;;;5036374;28;20562;-81
2023/02/21 04:49:03;;;;;;;10.27;9.47;;;2.40;99.90;;;;;;5036673;28;20210;-82
2023/02/21 04:51:30;;;;;;;10.40;9.70;;;2.40;99.90;;;;;;5044062;28;20238;-80
2023/02/21 04:53:57;;;;;;;10.23;9.50;;;2.40;99.90;;;;;;5039416;28;20234;-80
2023/02/21 04:56:26;;;;;;;10.63;9.80;;;2.40;99.90;;;;;;5037212;28;20625;-81
2023/02/21 04:58:54;;;;;;;10.53;9.63;;;2.40;99.90;;;;;;5040217;28;20224;-81
2023/02/21 05:01:22;;;;;;;10.87;9.93;;;2.40;99.90;;;;;;5041941;28;20232;-81
2023/02/21 05:03:49;;;;;;;10.53;9.73;;;2.40;99.90;;;;;;5035652;28;20243;-80
2023/02/21 05:06:19;;;;;;;11.03;10.10;;;2.40;99.90;;;;;;5035285;28;20207;-81
2023/02/21 05:08:46;;;;;;;10.90;10.10;;;2.30;99.90;;;;;;5038183;28;20272;-79
2023/02/21 05:11:13;;;;;;;10.40;9.60;;;2.30;99.90;;;;;;5038106;28;20216;-80
2023/02/21 05:13:40;;;;;;;10.27;9.57;;;2.20;99.90;;;;;;5035789;28;20250;-81
2023/02/21 05:16:08;;;;;;;10.53;9.73;;;2.20;99.90;;;;;;5041230;28;20700;-79
2023/02/21 05:18:37;;;;;;;10.70;9.90;;;2.10;99.90;;;;;;5035647;28;20718;-80
2023/02/21 05:21:04;;;;;;;10.47;9.70;;;2.10;99.90;;;;;;5044044;28;20693;-82
2023/02/21 05:23:39;;;;;;;10.70;9.80;;;2.10;99.90;;;;;;5035244;28;20230;-81
2023/02/21 05:26:08;;;;;;;10.33;9.50;;;2.10;99.90;;;;;;5033824;28;20208;-81
2023/02/21 05:28:36;;;;;;;10.90;9.90;;;2.10;99.90;;;;;;5042687;28;20200;-81
2023/02/21 05:31:03;;;;;;;10.30;9.60;;;2.10;99.90;;;;;;5037460;28;20591;-81
2023/02/21 05:33:32;;;;;;;10.57;9.77;;;2.10;99.90;;;;;;5037073;28;20867;-81
2023/02/21 05:35:59;;;;;;;11.80;10.57;;;2.10;99.90;;;;;;5039115;28;20451;-81
2023/02/21 05:38:27;;;;;;;11.67;10.77;;;2.10;99.90;;;;;;5040722;28;20471;-81
2023/02/21 05:40:53;;;;;;;11.43;10.33;;;2.10;99.90;;;;;;5042085;28;20236;-81
2023/02/21 05:43:20;;;;;;;11.33;10.40;;;2.10;99.90;;;;;;5035758;28;20200;-79
2023/02/21 05:45:47;;;;;;;13.40;10.70;;;2.10;99.90;;;;;;5027111;28;20215;-80
2023/02/21 05:48:14;;;;;;;11.63;10.60;;;2.10;99.90;;;;;;5043921;28;20520;-81
2023/02/21 05:50:43;;;;;;;10.90;10.20;;;2.10;99.90;;;;;;5038331;28;20832;-80
2023/02/21 05:53:10;;;;;;;11.53;10.53;;;2.00;99.90;;;;;;5038664;28;20444;-80
2023/02/21 05:55:37;;;;;;;11.67;10.73;;;2.00;99.90;;;;;;5040448;28;20196;-81
2023/02/21 05:58:04;;;;;;;11.97;10.97;;;2.00;99.90;;;;;;5035764;28;20632;-80
2023/02/21 06:00:31;;;;;;;12.30;11.30;;;2.00;99.90;;;;;;5033488;28;21018;-80
2023/02/21 06:02:58;;;;;;;12.77;11.40;;;2.10;99.90;;;;;;5035193;28;20952;-82
2023/02/21 06:05:25;;;;;;;12.40;11.40;;;2.10;99.90;;;;;;5036055;28;20886;-81
2023/02/21 06:07:53;;;;;;;13.20;11.93;;;2.10;99.90;;;;;;5035636;28;20516;-81
2023/02/21 06:10:21;;;;;;;11.83;10.93;;;2.10;99.90;;;;;;5043880;28;20854;-81
2023/02/21 06:12:47;;;;;;;12.03;11.07;;;2.00;99.90;;;;;;5034319;28;20200;-81
2023/02/21 06:15:14;;;;;;;12.80;11.70;;;2.00;99.90;;;;;;5043096;28;20503;-81
2023/02/21 06:17:41;;;;;;;12.13;11.20;;;2.00;99.90;;;;;;5041708;28;20484;-80
2023/02/21 06:20:10;;;;;;;12.50;11.50;;;2.00;99.90;;;;;;5041797;28;20306;-82
2023/02/21 06:22:38;;;;;;;13.47;12.27;;;2.00;99.90;;;;;;5040428;28;20463;-80
2023/02/21 06:25:07;;;;;;;13.53;12.43;;;2.00;99.90;;;;;;5041676;28;20443;-80
2023/02/21 06:27:34;;;;;;;13.90;12.70;;;2.00;99.90;;;;;;5038376;28;20196;-80
2023/02/21 06:30:01;;;;;;;13.80;12.50;;;2.10;99.90;;;;;;5040498;28;20448;-81
2023/02/21 06:32:28;;;;;;;13.20;12.10;;;2.10;99.90;;;;;;5043795;28;20218;-80
2023/02/21 06:34:55;;;;;;;13.50;12.20;;;2.10;99.90;;;;;;5038029;28;20207;-80
2023/02/21 06:37:21;;;;;;;13.93;12.43;;;2.10;99.90;;;;;;5043530;28;20192;-80
2023/02/21 06:39:48;;;;;;;14.03;12.73;;;2.10;99.90;;;;;;5040100;28;20243;-80
2023/02/21 06:42:18;;;;;;;16.57;13.20;;;2.20;99.90;;;;;;5037486;28;20516;-81
2023/02/21 06:44:45;;;;;;;13.67;12.30;;;2.30;99.90;;;;;;5042404;28;20449;-81
2023/02/21 06:47:13;;;;;;;12.93;11.83;;;2.30;99.90;;;;;;5041839;28;20447;-80
2023/02/21 06:49:39;;;;;;;11.90;11.00;;;2.40;99.90;;;;;;5040565;28;20456;-81
2023/02/21 06:52:07;;;;;;;11.90;10.90;;;2.50;99.90;;;;;;5041364;28;20221;-79
2023/02/21 06:54:34;;;;;;;12.23;11.33;;;2.60;99.90;;;;;;5042273;28;20245;-80
2023/02/21 06:57:01;;;;;;;12.70;11.60;;;2.80;99.90;;;;;;5046090;28;20455;-80
2023/02/21 06:59:29;;;;;;;12.10;11.20;;;2.90;99.90;;;;;;5040793;28;20235;-80
2023/02/21 07:01:57;;;;;;;12.17;11.27;;;3.00;99.90;;;;;;5039000;28;20254;-81
2023/02/21 07:04:24;;;;;;;11.63;10.77;;;3.10;99.90;;;;;;5039511;28;20200;-81
2023/02/21 07:06:52;;;;;;;11.93;10.93;;;3.20;99.90;;;;;;5032627;28;20224;-85
2023/02/21 07:09:19;;;;;;;11.70;10.83;;;3.40;99.90;;;;;;5027801;28;20251;-85
2023/02/21 07:11:46;;;;;;;11.47;10.57;;;3.50;99.90;;;;;;5029033;28;20231;-84
2023/02/21 07:14:13;;;;;;;10.67;9.87;;;3.50;99.90;;;;;;5028792;28;20209;-86
2023/02/21 07:16:42;;;;;;;11.40;10.33;;;3.60;99.90;;;;;;5033269;28;20215;-87
2023/02/21 07:19:08;;;;;;;11.80;10.90;;;3.70;99.90;;;;;;5033809;28;20627;-87
2023/02/21 07:21:36;;;;;;;12.17;11.10;;;3.90;99.90;;;;;;5033602;28;20216;-87
2023/02/21 07:24:02;;;;;;;11.60;10.60;;;4.10;99.90;;;;;;5029006;28;20210;-88
2023/02/21 07:26:29;;;;;;;11.63;10.83;;;4.30;99.90;;;;;;5024882;28;20230;-88
2023/02/21 07:28:56;;;;;;;11.17;10.47;;;4.50;99.90;;;;;;5033997;28;20200;-87
2023/02/21 07:31:23;;;;;;;11.27;10.53;;;4.60;99.90;;;;;;5027300;28;20224;-88
2023/02/21 07:33:51;;;;;;;11.60;10.60;;;4.70;99.90;;;;;;5033672;28;20207;-87
2023/02/21 07:36:18;;;;;;;11.47;10.60;;;4.80;99.90;;;;;;5033102;28;20214;-81
2023/02/21 07:38:45;;;;;;;11.43;10.53;;;4.80;99.90;;;;;;5033775;28;20204;-81
2023/02/21 07:41:15;;;;;;;11.43;10.63;;;4.80;99.90;;;;;;5031314;28;20282;-81
2023/02/21 07:43:42;;;;;;;10.93;10.23;;;4.90;99.90;;;;;;5030152;28;20211;-82
2023/02/21 07:46:11;;;;;;;11.93;10.93;;;5.00;99.90;;;;;;5036382;28;20235;-83
2023/02/21 07:48:37;;;;;;;15.57;13.97;;;5.20;99.90;;;;;;5030959;28;20207;-82
2023/02/21 07:51:06;;;;;;;17.67;15.10;;;5.60;99.90;;;;;;5030673;28;20243;-82
2023/02/21 07:53:33;;;;;;;13.20;12.00;;;6.00;99.90;;;;;;5030324;28;20206;-81
2023/02/21 07:56:00;;;;;;;10.50;9.40;;;6.50;99.90;;;;;;5032114;28;20274;-80
2023/02/21 07:58:27;;;;;;;10.67;9.80;;;7.00;99.90;;;;;;5032433;28;20252;-82
2023/02/21 08:00:54;;;;;;;12.00;11.03;;;7.50;99.90;;;;;;5026820;28;20247;-79
2023/02/21 08:03:21;;;;;;;11.43;10.53;;;8.00;99.90;;;;;;5032454;28;20200;-80
2023/02/21 08:05:48;;;;;;;6.73;4.60;;;8.50;99.90;;;;;;5029111;28;20224;-80
2023/02/21 08:08:16;;;;;;;5.23;3.83;;;8.90;99.90;;;;;;5033148;28;20428;-80
2023/02/21 08:10:43;;;;;;;7.13;4.27;;;9.30;99.90;;;;;;5028462;28;20323;-78
2023/02/21 08:13:10;;;;;;;8.07;7.20;;;9.50;99.90;;;;;;5032515;28;20254;-79
2023/02/21 08:15:37;;;;;;;7.13;6.43;;;9.80;99.90;;;;;;5031544;28;20233;-80
2023/02/21 08:18:04;;;;;;;13.97;12.87;;;10.10;99.90;;;;;;5036591;28;20223;-79
2023/02/21 08:20:31;;;;;;;11.80;4.17;;;10.50;99.90;;;;;;5036154;28;20234;-78
2023/02/21 08:22:57;;;;;;;5.60;3.80;;;10.70;99.90;;;;;;5029013;28;20204;-79
2023/02/21 08:25:25;;;;;;;10.50;9.60;;;10.60;99.90;;;;;;5035359;28;20196;-79
2023/02/21 08:27:54;;;;;;;8.80;4.60;;;10.70;99.90;;;;;;5035234;28;20202;-79
2023/02/21 08:30:21;;;;;;;7.23;4.73;;;10.90;99.90;;;;;;5030987;28;20221;-79
2023/02/21 08:32:48;;;;;;;6.17;5.57;;;11.20;99.90;;;;;;5030772;28;20234;-79
2023/02/21 08:35:16;;;;;;;6.67;6.13;;;11.50;99.90;;;;;;5032150;28;20281;-79
2023/02/21 08:37:45;;;;;;;7.47;6.70;;;11.60;99.90;;;;;;5030041;28;20227;-80
2023/02/21 08:40:12;;;;;;;6.97;5.67;;;12.00;99.90;;;;;;5032850;28;20231;-79
2023/02/21 08:42:41;;;;;;;10.40;9.60;;;12.30;99.90;;;;;;5033263;28;20226;-79
2023/02/21 08:45:11;;;;;;;11.80;10.87;;;12.40;99.90;;;;;;5028718;28;20228;-79
2023/02/21 08:47:38;;;;;;;11.00;10.20;;;12.50;99.90;;;;;;5030334;28;20226;-79
2023/02/21 08:50:06;;;;;;;5.37;4.87;;;12.50;99.90;;;;;;5029672;28;20246;-79
2023/02/21 08:52:33;;;;;;;4.33;3.73;;;12.50;99.90;;;;;;5030931;28;20224;-79
2023/02/21 08:54:59;;;;;;;6.97;4.20;;;12.50;99.90;;;;;;5031545;28;20216;-79
2023/02/21 08:57:26;;;;;;;7.37;4.33;;;12.80;99.90;;;;;;5030384;28;20484;-79
2023/02/21 08:59:54;;;;;;;5.23;4.60;;;12.60;99.90;;;;;;5034123;28;20192;-79
2023/02/21 09:02:24;;;;;;;9.80;8.90;;;12.80;99.90;;;;;;5032298;28;20266;-80
2023/02/21 09:04:52;;;;;;;11.13;9.80;;;12.50;99.90;;;;;;5036174;28;20208;-79
2023/02/21 09:07:21;;;;;;;8.60;7.80;;;12.60;99.90;;;;;;5030913;28;20717;-79
2023/02/21 09:09:48;;;;;;;9.90;9.30;;;12.60;99.90;;;;;;5029624;28;20208;-79
2023/02/21 09:12:15;;;;;;;9.63;8.87;;;13.00;99.90;;;;;;5036385;28;20220;-79
2023/02/21 09:14:43;;;;;;;9.03;8.37;;;13.30;99.90;;;;;;5036108;28;20200;-79
2023/02/21 09:17:13;;;;;;;8.80;7.93;;;13.50;99.90;;;;;;5033554;28;20195;-79
2023/02/21 09:19:40;;;;;;;8.77;8.00;;;13.40;99.90;;;;;;5034813;28;20202;-80
2023/02/21 09:22:07;;;;;;;8.60;7.80;;;13.50;99.90;;;;;;5039979;28;20215;-81
2023/02/21 09:24:34;;;;;;;8.90;8.07;;;13.50;99.90;;;;;;5032979;28;20200;-83
2023/02/21 09:27:02;;;;;;;12.33;8.37;;;13.30;99.90;;;;;;5037780;28;20197;-79
2023/02/21 09:29:31;;;;;;;11.00;7.90;;;13.20;99.90;;;;;;5036456;28;20220;-79
2023/02/21 09:31:58;;;;;;;9.03;7.50;;;13.50;99.90;;;;;;5031875;28;20224;-80
2023/02/21 09:34:26;;;;;;;8.27;6.33;;;13.60;99.90;;;;;;5029503;28;20205;-76
2023/02/21 09:36:54;;;;;;;6.77;6.10;;;13.80;99.90;;;;;;5029768;28;20235;-78
2023/02/21 09:39:22;;;;;;;8.67;7.90;;;13.90;99.90;;;;;;5033819;28;20197;-77
2023/02/21 09:41:52;;;;;;;7.13;6.53;;;14.20;99.90;;;;;;5032475;28;20285;-77
2023/02/21 09:44:22;;;;;;;9.03;8.33;;;14.30;99.90;;;;;;5032515;28;20202;-78
2023/02/21 09:46:52;;;;;;;10.40;9.50;;;14.20;99.90;;;;;;5025897;28;20202;-77
2023/02/21 09:49:24;;;;;;;10.30;9.50;;;14.30;99.90;;;;;;5026988;28;20272;-78
2023/02/21 09:51:53;;;;;;;9.60;8.95;;;14.40;99.90;;;;;;5028510;28;20425;-78
2023/02/21 09:54:28;;;;;;;10.40;9.70;;;14.60;99.90;;;;;;5029293;28;20196;-78
2023/02/21 09:56:57;;;;;;;5.30;4.53;;;14.50;99.90;;;;;;5034551;28;20702;-77
2023/02/21 09:59:24;;;;;;;5.57;5.07;;;14.50;99.90;;;;;;5030294;28;20197;-76
2023/02/21 10:02:12;;;;;;;5.37;4.83;;;14.60;99.90;;;;;;5028184;28;20232;-76
2023/02/21 10:04:55;;;;;;;6.13;5.53;;;14.40;99.90;;;;;;5027683;28;20291;-76
2023/02/21 10:07:34;;;;;;;9.33;8.57;;;14.20;99.90;;;;;;5027013;28;20258;-76
2023/02/21 10:10:05;;;;;;;10.20;9.50;;;14.10;99.90;;;;;;5029857;28;20201;-76
2023/02/21 10:12:37;;;;;;;9.53;8.83;;;14.10;99.90;;;;;;5028632;28;20215;-76
2023/02/21 10:15:32;;;;;;;10.10;9.40;;;14.20;99.90;;;;;;5029721;28;20194;-77
2023/02/21 10:18:06;;;;;;;9.80;8.90;;;14.20;99.90;;;;;;5034837;28;20626;-77
2023/02/21 10:20:35;;;;;;;9.70;9.00;;;13.90;99.90;;;;;;5027269;28;20210;-78
2023/02/21 10:23:14;;;;;;;10.27;9.40;;;13.90;99.90;;;;;;5017110;28;20784;-78
2023/02/21 10:25:44;;;;;;;9.90;9.20;;;13.80;99.90;;;;;;5017365;28;20577;-77
2023/02/21 10:28:18;;;;;;;9.60;8.90;;;13.80;99.90;;;;;;5020478;28;20191;-77
2023/02/21 10:30:46;;;;;;;8.57;7.90;;;13.80;99.90;;;;;;5018078;28;20304;-78
2023/02/21 10:33:14;;;;;;;9.00;8.30;;;13.70;99.90;;;;;;5020627;28;20220;-77
2023/02/21 10:35:41;;;;;;;9.10;8.48;;;13.70;99.90;;;;;;5017395;28;20800;-77
2023/02/21 10:38:13;;;;;;;9.00;8.30;;;13.80;99.90;;;;;;5020428;28;20197;-77
2023/02/21 10:40:42;;;;;;;9.13;8.53;;;13.70;99.90;;;;;;5016285;28;20208;-77
2023/02/21 10:43:13;;;;;;;9.03;8.33;;;13.70;99.90;;;;;;5023387;28;20632;-77
2023/02/21 10:45:44;;;;;;;9.07;8.43;;;13.60;99.90;;;;;;5017397;28;20264;-76
2023/02/21 10:48:12;;;;;;;9.00;8.30;;;13.60;99.90;;;;;;5020273;28;20197;-77
2023/02/21 10:50:43;;;;;;;9.13;8.33;;;13.60;99.90;;;;;;5024225;28;20647;-77
2023/02/21 10:53:25;;;;;;;8.80;8.20;;;13.50;99.90;;;;;;5033130;28;20702;-77
2023/02/21 10:56:29;;;;;;;9.40;8.70;;;13.60;99.90;;;;;;5030276;28;20624;-77
2023/02/21 10:59:00;;;;;;;9.10;8.50;;;13.50;99.90;;;;;;5026433;28;20448;-77
2023/02/21 11:01:38;;;;;;;9.60;8.63;;;13.50;99.90;;;;;;5026830;28;20230;-78
2023/02/21 11:04:07;;;;;;;8.83;8.23;;;13.50;99.90;;;;;;5026476;28;20603;-77
2023/02/21 11:06:36;;;;;;;7.70;7.20;;;13.50;99.90;;;;;;5033661;28;20618;-78
2023/02/21 11:09:29;;;;;;;8.40;7.80;;;13.70;99.90;;;;;;5021152;28;20708;-78
2023/02/21 11:12:02;;;;;;;8.10;7.60;;;13.70;99.90;;;;;;5023745;28;20217;-78
2023/02/21 11:14:31;;;;;;;8.40;7.90;;;13.80;99.90;;;;;;5023853;28;20225;-79
2023/02/21 11:17:15;;;;;;;8.20;7.60;;;13.90;99.90;;;;;;5021867;28;20224;-78
2023/02/21 11:19:45;;;;;;;8.70;8.10;;;13.90;99.90;;;;;;5018196;28;20451;-79
2023/02/21 11:22:12;;;;;;;7.80;7.30;;;14.00;99.90;;;;;;5019826;28;20755;-79
2023/02/21 11:24:53;;;;;;;8.00;7.50;;;14.00;99.90;;;;;;5018633;28;20585;-79
2023/02/21 11:27:20;;;;;;;7.40;7.00;;;14.00;99.90;;;;;;5026324;28;20241;-79
2023/02/21 11:29:50;;;;;;;7.60;7.20;;;14.00;99.90;;;;;;5022534;28;20199;-79
2023/02/21 11:32:24;;;;;;;8.10;7.60;;;14.10;99.90;;;;;;5022950;28;20213;-79
2023/02/21 11:34:51;;;;;;;7.77;7.17;;;14.00;99.90;;;;;;5032000;28;20204;-79
2023/02/21 11:37:18;;;;;;;7.73;7.13;;;14.00;99.90;;;;;;5026869;28;20222;-79
2023/02/21 11:39:52;;;;;;;7.70;7.10;;;14.00;99.90;;;;;;5028129;28;20208;-80
2023/02/21 11:42:28;;;;;;;7.80;7.30;;;14.00;99.90;;;;;;5032691;28;20601;-79
2023/02/21 11:45:13;;;;;;;8.60;8.00;;;14.00;99.90;;;;;;5034110;28;20209;-79
2023/02/21 11:47:44;;;;;;;8.20;7.60;;;14.10;99.90;;;;;;5033092;28;20263;-79
2023/02/21 11:50:19;;;;;;;7.47;7.07;;;14.10;99.90;;;;;;5028249;28;20220;-79
2023/02/21 11:52:52;;;;;;;7.93;7.43;;;14.20;99.90;;;;;;5026792;28;20220;-79
2023/02/21 11:55:22;;;;;;;7.70;7.20;;;14.20;99.90;;;;;;5030499;28;20198;-79
2023/02/21 11:57:57;;;;;;;7.63;7.20;;;14.30;99.90;;;;;;5026744;28;20277;-79
2023/02/21 12:00:31;;;;;;;8.10;7.60;;;14.30;99.90;;;;;;5035093;28;20200;-79
2023/02/21 12:03:09;;;;;;;8.33;7.73;;;14.30;99.90;;;;;;5028717;28;20220;-79
2023/02/21 12:05:47;;;;;;;8.03;7.30;;;14.30;99.90;;;;;;5032907;28;20202;-79
2023/02/21 12:08:37;;;;;;;7.40;7.00;;;14.30;99.90;;;;;;5027392;28;20196;-79
2023/02/21 12:11:16;;;;;;;7.20;6.80;;;14.40;99.90;;;;;;5032240;28;20789;-79
2023/02/21 12:13:54;;;;;;;7.10;6.70;;;14.40;99.90;;;;;;5030909;28;20205;-79
2023/02/21 12:16:33;;;;;;;7.60;7.20;;;14.50;99.90;;;;;;5027185;28;20247;-79
2023/02/21 12:19:16;;;;;;;7.17;6.77;;;14.60;99.90;;;;;;5032425;28;20635;-79
2023/02/21 12:22:02;;;;;;;7.20;6.80;;;14.60;99.90;;;;;;5030542;28;20228;-79
2023/02/21 12:24:52;;;;;;;7.03;6.63;;;14.60;99.90;;;;;;5030019;28;20229;-78
2023/02/21 12:27:28;;;;;;;7.00;6.60;;;14.70;99.90;;;;;;5032083;28;20285;-77
2023/02/21 12:30:14;;;;;;;7.13;6.73;;;14.80;99.90;;;;;;5033151;28;20201;-79
2023/02/21 12:32:49;;;;;;;7.57;7.07;;;14.80;99.90;;;;;;5029289;28;20282;-79
2023/02/21 12:35:39;;;;;;;7.10;6.70;;;14.80;99.90;;;;;;5029965;28;20231;-78
2023/02/21 12:38:09;;;;;;;7.03;6.70;;;14.80;99.90;;;;;;5022889;28;20277;-78
2023/02/21 12:40:45;;;;;;;7.23;6.73;;;14.80;99.90;;;;;;5029397;28;20631;-79
2023/02/21 12:43:38;;;;;;;7.23;6.83;;;14.80;99.90;;;;;;5034813;28;20241;-78
2023/02/21 12:46:11;;;;;;;7.30;6.90;;;14.90;99.90;;;;;;5028417;28;20197;-78
2023/02/21 12:48:44;;;;;;;7.13;6.63;;;15.00;99.90;;;;;;5032622;28;20226;-78
2023/02/21 12:51:15;;;;;;;7.00;6.50;;;15.10;99.90;;;;;;5023085;28;20591;-78
2023/02/21 12:53:49;;;;;;;6.90;6.50;;;15.20;99.90;;;;;;5031002;28;20202;-78
2023/02/21 12:56:20;;;;;;;6.90;6.50;;;15.10;99.90;;;;;;5025804;28;20243;-78
2023/02/21 12:58:55;;;;;;;7.07;6.50;;;15.20;99.90;;;;;;5030680;28;20207;-78
2023/02/21 13:01:26;;;;;;;7.10;6.70;;;15.20;99.90;;;;;;5027059;28;20227;-79
2023/02/21 13:04:02;;;;;;;6.97;6.60;;;15.30;99.90;;;;;;5026310;28;20280;-78
2023/02/21 13:06:33;;;;;;;7.07;6.67;;;15.30;99.90;;;;;;5025944;28;20247;-78
2023/02/21 13:09:15;;;;;;;7.50;7.00;;;15.30;99.90;;;;;;5029391;28;20204;-78
2023/02/21 13:11:48;;;;;;;7.40;6.90;;;15.30;99.90;;;;;;5032149;28;20257;-78
2023/02/21 13:14:20;;;;;;;7.10;6.70;;;15.30;99.90;;;;;;5016535;28;20218;-76
2023/02/21 13:16:48;;;;;;;8.20;7.50;;;15.30;99.90;;;;;;5025006;28;20617;-77
2023/02/21 13:19:15;;;;;;;8.10;7.30;;;15.30;99.90;;;;;;5024994;28;20207;-77
2023/02/21 13:21:59;;;;;;;7.60;7.00;;;15.30;99.90;;;;;;5028858;28;20222;-76
2023/02/21 13:24:40;;;;;;;7.07;6.67;;;15.40;99.90;;;;;;5025213;28;20223;-76
2023/02/21 13:27:44;;;;;;;7.23;6.60;;;15.50;99.90;;;;;;5030933;28;20247;-76
2023/02/21 13:30:17;;;;;;;7.30;6.80;;;15.50;99.90;;;;;;5023464;28;20199;-76
2023/02/21 13:32:52;;;;;;;7.93;7.20;;;15.50;99.90;;;;;;5025983;28;20215;-75
2023/02/21 13:35:24;;;;;;;7.83;7.33;;;15.40;99.90;;;;;;5020785;28;20193;-77
2023/02/21 13:37:52;;;;;;;6.90;6.50;;;15.40;99.90;;;;;;5028318;28;20255;-76
2023/02/21 13:40:24;;;;;;;6.60;6.30;;;15.50;99.90;;;;;;5015339;28;20208;-76
2023/02/21 13:43:01;;;;;;;6.73;6.43;;;15.60;99.90;;;;;;5023301;28;20215;-75
2023/02/21 13:45:30;;;;;;;7.27;6.77;;;15.60;99.90;;;;;;5027373;28;20202;-76
2023/02/21 13:48:22;;;;;;;6.90;6.50;;;15.60;99.90;;;;;;5026620;28;20211;-75
2023/02/21 13:50:50;;;;;;;7.00;6.60;;;15.60;99.90;;;;;;5026117;28;20289;-77
2023/02/21 13:53:19;;;;;;;6.90;6.60;;;15.60;99.90;;;;;;5030766;28;20195;-78
2023/02/21 13:56:25;;;;;;;7.30;6.83;;;15.60;99.90;;;;;;5028342;28;20198;-76
2023/02/21 13:58:52;;;;;;;6.90;6.50;;;15.70;99.90;;;;;;5024506;28;20255;-76
2023/02/21 14:01:44;;;;;;;6.73;6.33;;;15.70;99.90;;;;;;5030682;28;20227;-76
2023/02/21 14:05:02;;;;;;;7.00;6.60;;;15.80;99.90;;;;;;5029562;28;20610;-76
2023/02/21 14:07:58;;;;;;;6.80;6.40;;;15.80;99.90;;;;;;5026419;28;20293;-76
2023/02/21 14:10:33;;;;;;;6.47;6.17;;;15.80;99.90;;;;;;5013135;28;20292;-76
2023/02/21 14:13:04;;;;;;;6.80;6.40;;;15.80;99.90;;;;;;5026495;28;20207;-76
2023/02/21 14:15:42;;;;;;;6.87;6.37;;;15.90;99.90;;;;;;5027394;28;20207;-76
2023/02/21 14:18:20;;;;;;;6.77;6.37;;;15.90;99.90;;;;;;5028780;28;20197;-76
2023/02/21 14:20:50;;;;;;;6.90;6.50;;;15.90;99.90;;;;;;5024001;28;20222;-76
2023/02/21 14:23:19;;;;;;;6.80;6.30;;;15.90;99.90;;;;;;5030485;28;20256;-76
2023/02/21 14:25:57;;;;;;;6.63;6.27;;;15.90;99.90;;;;;;5030387;28;20198;-76
2023/02/21 14:28:49;;;;;;;6.90;6.50;;;16.00;99.90;;;;;;5026328;28;20189;-77
2023/02/21 14:31:45;;;;;;;7.37;6.80;;;16.00;99.90;;;;;;5024293;28;20225;-76
2023/02/21 14:34:17;;;;;;;7.27;6.60;;;16.00;99.90;;;;;;5021912;28;20203;-76
2023/02/21 14:36:46;;;;;;;7.70;7.17;;;16.00;99.90;;;;;;5028124;28;20261;-78
2023/02/21 14:39:14;;;;;;;6.63;6.33;;;16.00;99.90;;;;;;5027279;28;20194;-79
2023/02/21 14:41:54;;;;;;;6.87;6.47;;;16.00;99.90;;;;;;5027226;28;20222;-79
2023/02/21 14:44:28;;;;;;;7.10;6.70;;;16.00;99.90;;;;;;5031157;28;20197;-78
2023/02/21 14:47:28;;;;;;;6.70;6.30;;;16.10;99.90;;;;;;5029322;28;20207;-78
2023/02/21 14:50:22;;;;;;;6.77;6.27;;;16.10;99.90;;;;;;5024929;28;20216;-78
2023/02/21 14:53:12;;;;;;;6.50;6.00;;;16.00;99.90;;;;;;5035742;28;20200;-77
2023/02/21 14:56:03;;;;;;;6.50;6.10;;;16.00;99.90;;;;;;5028765;28;20831;-78
2023/02/21 14:59:01;;;;;;;6.50;6.10;;;16.00;99.90;;;;;;5030781;28;20197;-77
2023/02/21 15:01:45;;;;;;;6.70;6.30;;;16.00;99.90;;;;;;5010913;28;20276;-76
2023/02/21 15:04:19;;;;;;;6.83;6.43;;;16.00;99.90;;;;;;5022953;28;20230;-75
2023/02/21 15:07:08;;;;;;;6.47;6.07;;;16.00;99.90;;;;;;5027411;28;20206;-76
2023/02/21 15:09:35;;;;;;;6.83;6.43;;;15.90;99.90;;;;;;5024674;28;20192;-76
2023/02/21 15:12:07;;;;;;;6.57;6.20;;;15.90;99.90;;;;;;5029988;28;20539;-76
2023/02/21 15:14:40;;;;;;;6.70;6.20;;;15.90;99.90;;;;;;5030109;28;20195;-76
2023/02/21 15:17:12;;;;;;;7.00;6.50;;;15.80;99.90;;;;;;5028902;28;20262;-76
2023/02/21 15:19:39;;;;;;;6.83;6.43;;;15.80;99.90;;;;;;5031661;28;20207;-76
2023/02/21 15:22:21;;;;;;;6.90;6.50;;;15.70;99.90;;;;;;5031657;28;20635;-76
2023/02/21 15:25:21;;;;;;;6.70;6.30;;;15.70;99.90;;;;;;5030403;28;20257;-76
2023/02/21 15:28:03;;;;;;;7.20;6.70;;;15.60;99.90;;;;;;4962774;28;20209;-76
2023/02/21 15:30:34;;;;;;;6.90;6.40;;;15.60;99.90;;;;;;4968807;28;20202;-76
2023/02/21 15:33:07;;;;;;;8.27;7.70;;;15.60;99.90;;;;;;4997091;28;20212;-76
2023/02/21 15:35:37;;;;;;;8.00;7.50;;;15.60;99.90;;;;;;5026161;28;20215;-76
2023/02/21 15:38:13;;;;;;;8.20;7.70;;;15.60;99.90;;;;;;5030440;28;20279;-76
2023/02/21 15:40:40;;;;;;;8.37;7.73;;;15.50;99.90;;;;;;5026790;28;20689;-76
2023/02/21 15:43:07;;;;;;;7.03;6.63;;;15.50;99.90;;;;;;5022046;28;20238;-76
2023/02/21 15:45:47;;;;;;;7.20;6.70;;;15.30;99.90;;;;;;5028768;28;20273;-76
2023/02/21 15:48:14;;;;;;;8.03;7.43;;;15.20;99.90;;;;;;5025269;28;20569;-76
2023/02/21 15:50:43;;;;;;;8.27;7.57;;;15.20;99.90;;;;;;5030614;28;20291;-76
2023/02/21 15:53:17;;;;;;;8.17;7.57;;;15.20;99.90;;;;;;5023992;28;20235;-76
2023/02/21 15:55:45;;;;;;;7.67;7.20;;;15.10;99.90;;;;;;5031163;28;20590;-76
2023/02/21 15:58:16;;;;;;;7.50;7.00;;;15.10;99.90;;;;;;5025007;28;20261;-76
2023/02/21 16:00:45;;;;;;;7.37;6.87;;;15.00;99.90;;;;;;5027483;28;20217;-76
2023/02/21 16:03:29;;;;;;;9.10;8.40;;;14.90;99.90;;;;;;5025837;28;20223;-79
2023/02/21 16:06:17;;;;;;;3.87;3.50;;;14.80;99.90;;;;;;5029081;28;20200;-78
2023/02/21 16:09:23;;;;;;;9.10;8.50;;;14.70;99.90;;;;;;5029021;28;20210;-78
2023/02/21 16:11:52;;;;;;;8.60;8.10;;;14.60;99.90;;;;;;5019282;28;20274;-79